createdAt,value
2019-01-18T00:00:23.480Z,997.99
2019-01-18T00:01:23.462Z,998.06
2019-01-18T00:02:23.445Z,998.06
2019-01-18T00:03:23.427Z,998.07
2019-01-18T00:04:23.409Z,998.09
2019-01-18T00:05:23.391Z,998.08
2019-01-18T00:06:23.373Z,998.06
2019-01-18T00:07:23.355Z,998.08
2019-01-18T00:08:23.337Z,998.13
2019-01-18T00:09:23.319Z,998.08
2019-01-18T00:10:23.302Z,998.12
2019-01-18T00:11:23.283Z,998.15
2019-01-18T00:12:23.266Z,998.13
2019-01-18T00:13:23.249Z,998.14
2019-01-18T00:14:23.235Z,998.14
2019-01-18T00:15:23.212Z,998.15
2019-01-18T00:16:23.195Z,998.22
2019-01-18T00:17:23.177Z,998.19
2019-01-18T00:18:23.159Z,998.17
2019-01-18T00:19:23.141Z,998.17
2019-01-18T00:20:23.123Z,998.20
2019-01-18T00:21:23.105Z,998.16
2019-01-18T00:22:23.088Z,998.17
2019-01-18T00:23:23.070Z,998.21
2019-01-18T00:24:23.057Z,998.17
2019-01-18T00:25:23.035Z,998.21
2019-01-18T00:26:23.067Z,998.18
2019-01-18T00:27:22.999Z,998.17
2019-01-18T00:28:22.984Z,998.20
2019-01-18T00:29:29.463Z,998.22
2019-01-18T00:30:22.946Z,998.22
2019-01-18T00:31:22.928Z,998.24
2019-01-18T00:32:22.911Z,998.24
2019-01-18T00:33:22.892Z,998.22
2019-01-18T00:34:22.877Z,998.30
2019-01-18T00:35:22.856Z,998.35
2019-01-18T00:36:22.838Z,998.33
2019-01-18T00:37:22.820Z,998.28
2019-01-18T00:38:22.803Z,998.38
2019-01-18T00:39:22.784Z,998.32
2019-01-18T00:40:22.767Z,998.41
2019-01-18T00:41:22.749Z,998.37
2019-01-18T00:42:22.730Z,998.46
2019-01-18T00:43:22.712Z,998.46
2019-01-18T00:44:22.697Z,998.47
2019-01-18T00:45:22.678Z,998.47
2019-01-18T00:46:22.662Z,998.45
2019-01-18T00:47:22.641Z,998.48
2019-01-18T00:48:22.623Z,998.49
2019-01-18T00:49:22.606Z,998.53
2019-01-18T00:50:22.591Z,998.53
2019-01-18T00:51:22.570Z,998.54
2019-01-18T00:52:22.553Z,998.54
2019-01-18T00:53:22.535Z,998.57
2019-01-18T00:54:22.519Z,998.53
2019-01-18T00:55:22.499Z,998.54
2019-01-18T00:56:22.481Z,998.57
2019-01-18T00:57:22.464Z,998.57
2019-01-18T00:58:22.446Z,998.60
2019-01-18T00:59:22.429Z,998.65
2019-01-18T01:00:22.413Z,998.62
2019-01-18T01:01:22.393Z,998.66
2019-01-18T01:02:22.375Z,998.67
2019-01-18T01:03:22.357Z,998.67
2019-01-18T01:04:22.340Z,998.70
2019-01-18T01:05:22.322Z,998.74
2019-01-18T01:06:22.304Z,998.71
2019-01-18T01:07:22.286Z,998.75
2019-01-18T01:08:22.269Z,998.72
2019-01-18T01:09:22.253Z,998.76
2019-01-18T01:10:22.233Z,998.75
2019-01-18T01:11:22.215Z,998.79
2019-01-18T01:12:22.198Z,998.79
2019-01-18T01:13:22.180Z,998.80
2019-01-18T01:14:22.163Z,998.83
2019-01-18T01:15:22.144Z,998.84
2019-01-18T01:16:22.127Z,998.87
2019-01-18T01:17:22.111Z,998.87
2019-01-18T01:18:22.092Z,998.87
2019-01-18T01:19:22.074Z,998.89
2019-01-18T01:20:22.056Z,998.89
2019-01-18T01:21:22.039Z,998.90
2019-01-18T01:22:22.023Z,998.89
2019-01-18T01:23:22.008Z,998.94
2019-01-18T01:24:21.985Z,998.91
2019-01-18T01:25:21.969Z,998.91
2019-01-18T01:26:21.957Z,998.95
2019-01-18T01:27:21.932Z,998.95
2019-01-18T01:28:21.966Z,998.96
2019-01-18T01:29:21.898Z,998.96
2019-01-18T01:30:21.883Z,998.98
2019-01-18T01:31:21.862Z,998.97
2019-01-18T01:32:21.845Z,998.97
2019-01-18T01:33:21.878Z,998.96
2019-01-18T01:34:21.810Z,999.01
2019-01-18T01:35:21.793Z,999.00
2019-01-18T01:36:21.775Z,999.01
2019-01-18T01:37:21.757Z,999.00
2019-01-18T01:38:21.740Z,998.99
2019-01-18T01:39:21.722Z,999.02
2019-01-18T01:40:21.704Z,999.00
2019-01-18T01:41:21.687Z,999.05
2019-01-18T01:42:21.670Z,999.06
2019-01-18T01:43:21.702Z,999.11
2019-01-18T01:44:21.634Z,999.09
2019-01-18T01:45:21.616Z,999.13
2019-01-18T01:46:21.599Z,999.14
2019-01-18T01:47:21.580Z,999.11
2019-01-18T01:48:21.563Z,999.18
2019-01-18T01:49:21.546Z,999.16
2019-01-18T01:50:21.528Z,999.17
2019-01-18T01:51:21.514Z,999.22
2019-01-18T01:52:21.493Z,999.18
2019-01-18T01:53:21.476Z,999.18
2019-01-18T01:54:21.458Z,999.17
2019-01-18T01:55:21.441Z,999.28
2019-01-18T01:56:21.423Z,999.30
2019-01-18T01:57:21.405Z,999.32
2019-01-18T01:58:21.389Z,999.36
2019-01-18T01:59:21.372Z,999.40
2019-01-18T02:00:21.354Z,999.39
2019-01-18T02:01:21.335Z,999.44
2019-01-18T02:02:21.317Z,999.43
2019-01-18T02:03:21.348Z,999.51
2019-01-18T02:04:21.281Z,999.59
2019-01-18T02:05:21.263Z,999.58
2019-01-18T02:06:21.246Z,999.60
2019-01-18T02:07:21.227Z,999.65
2019-01-18T02:08:21.260Z,999.59
2019-01-18T02:09:21.194Z,999.62
2019-01-18T02:10:21.177Z,999.65
2019-01-18T02:11:21.158Z,999.60
2019-01-18T02:12:21.140Z,999.62
2019-01-18T02:13:21.122Z,999.61
2019-01-18T02:14:21.105Z,999.64
2019-01-18T02:15:21.086Z,999.65
2019-01-18T02:16:21.069Z,999.63
2019-01-18T02:17:21.051Z,999.68
2019-01-18T02:18:21.034Z,999.66
2019-01-18T02:19:21.015Z,999.67
2019-01-18T02:20:20.999Z,999.65
2019-01-18T02:21:20.980Z,999.68
2019-01-18T02:22:20.963Z,999.70
2019-01-18T02:23:20.944Z,999.70
2019-01-18T02:24:20.927Z,999.72
2019-01-18T02:25:20.909Z,999.73
2019-01-18T02:26:20.893Z,999.73
2019-01-18T02:27:20.875Z,999.74
2019-01-18T02:28:20.855Z,999.78
2019-01-18T02:29:20.838Z,999.76
2019-01-18T02:30:20.821Z,999.78
2019-01-18T02:31:20.802Z,999.79
2019-01-18T02:32:20.784Z,999.79
2019-01-18T02:33:20.771Z,999.85
2019-01-18T02:34:20.799Z,999.84
2019-01-18T02:35:20.730Z,999.86
2019-01-18T02:36:20.713Z,999.84
2019-01-18T02:37:20.695Z,999.89
2019-01-18T02:38:20.678Z,999.89
2019-01-18T02:39:20.659Z,999.86
2019-01-18T02:40:20.641Z,999.93
2019-01-18T02:41:20.631Z,999.93
2019-01-18T02:42:20.615Z,999.94
2019-01-18T02:43:20.587Z,999.92
2019-01-18T02:44:20.569Z,999.92
2019-01-18T02:45:20.556Z,999.95
2019-01-18T02:46:20.533Z,999.96
2019-01-18T02:47:20.515Z,999.99
2019-01-18T02:48:20.498Z,999.97
2019-01-18T02:49:20.481Z,1000.00
2019-01-18T02:50:20.462Z,1000.04
2019-01-18T02:51:20.443Z,1000.04
2019-01-18T02:52:20.428Z,1000.07
2019-01-18T02:53:20.408Z,1000.06
2019-01-18T02:54:20.390Z,1000.06
2019-01-18T02:55:20.371Z,1000.07
2019-01-18T02:56:20.355Z,1000.05
2019-01-18T02:57:20.336Z,1000.07
2019-01-18T02:58:20.318Z,1000.07
2019-01-18T02:59:20.301Z,1000.09
2019-01-18T03:00:20.285Z,1000.06
2019-01-18T03:01:20.263Z,1000.10
2019-01-18T03:02:20.245Z,1000.08
2019-01-18T03:03:20.227Z,1000.13
2019-01-18T03:04:20.259Z,1000.09
2019-01-18T03:05:20.192Z,1000.09
2019-01-18T03:06:20.174Z,1000.12
2019-01-18T03:07:20.158Z,1000.15
2019-01-18T03:08:20.138Z,1000.15
2019-01-18T03:09:20.119Z,1000.14
2019-01-18T03:10:20.103Z,1000.14
2019-01-18T03:11:20.084Z,1000.10
2019-01-18T03:12:20.067Z,1000.18
2019-01-18T03:13:20.047Z,1000.19
2019-01-18T03:14:20.029Z,1000.15
2019-01-18T03:15:20.012Z,1000.21
2019-01-18T03:16:19.993Z,1000.20
2019-01-18T03:17:19.975Z,1000.18
2019-01-18T03:18:19.957Z,1000.23
2019-01-18T03:19:19.940Z,1000.22
2019-01-18T03:20:19.921Z,1000.21
2019-01-18T03:21:19.904Z,1000.25
2019-01-18T03:22:19.884Z,1000.24
2019-01-18T03:23:19.866Z,1000.24
2019-01-18T03:24:19.849Z,1000.23
2019-01-18T03:25:19.831Z,1000.28
2019-01-18T03:26:19.813Z,1000.33
2019-01-18T03:27:19.805Z,1000.31
2019-01-18T03:28:19.776Z,1000.29
2019-01-18T03:29:19.758Z,1000.34
2019-01-18T03:30:20.594Z,1000.37
2019-01-18T03:31:19.721Z,1000.33
2019-01-18T03:32:19.703Z,1000.36
2019-01-18T03:33:19.686Z,1000.41
2019-01-18T03:34:19.666Z,1000.43
2019-01-18T03:35:19.699Z,1000.45
2019-01-18T03:36:19.631Z,1000.50
2019-01-18T03:37:19.612Z,1000.53
2019-01-18T03:38:19.593Z,1000.50
2019-01-18T03:39:19.575Z,1000.51
2019-01-18T03:40:19.606Z,1000.55
2019-01-18T03:41:19.551Z,1000.56
2019-01-18T03:42:19.520Z,1000.62
2019-01-18T03:43:19.502Z,1000.63
2019-01-18T03:44:19.483Z,1000.65
2019-01-18T03:45:19.470Z,1000.64
2019-01-18T03:46:19.448Z,1000.64
2019-01-18T03:47:19.428Z,1000.66
2019-01-18T03:48:19.414Z,1000.66
2019-01-18T03:49:19.392Z,1000.68
2019-01-18T03:50:19.375Z,1000.70
2019-01-18T03:51:19.356Z,1000.70
2019-01-18T03:52:19.338Z,1000.72
2019-01-18T03:53:19.320Z,1000.74
2019-01-18T03:54:19.302Z,1000.76
2019-01-18T03:55:19.284Z,1000.79
2019-01-18T03:56:19.269Z,1000.77
2019-01-18T03:57:19.248Z,1000.82
2019-01-18T03:58:19.231Z,1000.85
2019-01-18T03:59:19.214Z,1000.83
2019-01-18T04:00:25.818Z,1000.86
2019-01-18T04:01:19.176Z,1000.82
2019-01-18T04:02:19.160Z,1000.82
2019-01-18T04:03:19.144Z,1000.81
2019-01-18T04:04:19.123Z,1000.79
2019-01-18T04:05:19.104Z,1000.83
2019-01-18T04:06:19.096Z,1000.83
2019-01-18T04:07:19.069Z,1000.85
2019-01-18T04:08:19.050Z,1000.84
2019-01-18T04:09:19.032Z,1000.84
2019-01-18T04:10:19.017Z,1000.81
2019-01-18T04:11:19.045Z,1000.82
2019-01-18T04:12:18.977Z,1000.85
2019-01-18T04:13:18.959Z,1000.84
2019-01-18T04:14:18.941Z,1000.85
2019-01-18T04:15:18.922Z,1000.86
2019-01-18T04:16:18.906Z,1000.87
2019-01-18T04:17:18.888Z,1000.87
2019-01-18T04:18:18.871Z,1000.89
2019-01-18T04:19:18.851Z,1000.89
2019-01-18T04:20:18.832Z,1000.94
2019-01-18T04:21:18.815Z,1000.96
2019-01-18T04:22:18.799Z,1001.02
2019-01-18T04:23:18.779Z,1001.01
2019-01-18T04:24:18.760Z,1001.02
2019-01-18T04:25:18.742Z,1001.02
2019-01-18T04:26:18.727Z,1001.08
2019-01-18T04:27:18.706Z,1001.11
2019-01-18T04:28:18.687Z,1001.08
2019-01-18T04:29:18.672Z,1001.10
2019-01-18T04:30:18.654Z,1001.13
2019-01-18T04:31:18.634Z,1001.19
2019-01-18T04:32:18.618Z,1001.15
2019-01-18T04:33:18.599Z,1001.16
2019-01-18T04:34:18.581Z,1001.18
2019-01-18T04:35:18.562Z,1001.15
2019-01-18T04:36:18.595Z,1001.19
2019-01-18T04:37:18.527Z,1001.20
2019-01-18T04:38:18.509Z,1001.22
2019-01-18T04:39:18.491Z,1001.23
2019-01-18T04:40:18.473Z,1001.23
2019-01-18T04:41:18.456Z,1001.21
2019-01-18T04:42:18.438Z,1001.24
2019-01-18T04:43:18.422Z,1001.24
2019-01-18T04:44:18.405Z,1001.24
2019-01-18T04:45:18.384Z,1001.27
2019-01-18T04:46:18.368Z,1001.28
2019-01-18T04:47:18.348Z,1001.28
2019-01-18T04:48:18.331Z,1001.28
2019-01-18T04:49:18.313Z,1001.26
2019-01-18T04:50:18.295Z,1001.32
2019-01-18T04:51:18.278Z,1001.33
2019-01-18T04:52:18.260Z,1001.34
2019-01-18T04:53:18.243Z,1001.32
2019-01-18T04:54:18.226Z,1001.39
2019-01-18T04:55:18.207Z,1001.32
2019-01-18T04:56:18.189Z,1001.36
2019-01-18T04:57:18.175Z,1001.36
2019-01-18T04:58:18.154Z,1001.36
2019-01-18T04:59:18.137Z,1001.44
2019-01-18T05:00:18.118Z,1001.40
2019-01-18T05:01:18.100Z,1001.40
2019-01-18T05:02:18.082Z,1001.41
2019-01-18T05:03:18.064Z,1001.38
2019-01-18T05:04:18.050Z,1001.39
2019-01-18T05:05:18.034Z,1001.38
2019-01-18T05:06:18.011Z,1001.42
2019-01-18T05:07:17.991Z,1001.42
2019-01-18T05:08:17.974Z,1001.45
2019-01-18T05:09:17.956Z,1001.46
2019-01-18T05:10:17.938Z,1001.42
2019-01-18T05:11:17.920Z,1001.47
2019-01-18T05:12:17.901Z,1001.49
2019-01-18T05:13:17.883Z,1001.46
2019-01-18T05:14:17.866Z,1001.46
2019-01-18T05:15:17.847Z,1001.52
2019-01-18T05:16:17.830Z,1001.46
2019-01-18T05:17:17.812Z,1001.50
2019-01-18T05:18:17.795Z,1001.49
2019-01-18T05:19:17.775Z,1001.48
2019-01-18T05:20:17.764Z,1001.48
2019-01-18T05:21:17.739Z,1001.48
2019-01-18T05:22:17.726Z,1001.47
2019-01-18T05:23:17.704Z,1001.48
2019-01-18T05:24:17.687Z,1001.50
2019-01-18T05:25:17.672Z,1001.50
2019-01-18T05:26:17.652Z,1001.52
2019-01-18T05:27:17.631Z,1001.55
2019-01-18T05:28:17.615Z,1001.53
2019-01-18T05:29:17.596Z,1001.56
2019-01-18T05:30:17.580Z,1001.57
2019-01-18T05:31:17.561Z,1001.60
2019-01-18T05:32:17.543Z,1001.61
2019-01-18T05:33:17.527Z,1001.66
2019-01-18T05:34:17.507Z,1001.62
2019-01-18T05:35:17.489Z,1001.65
2019-01-18T05:36:17.472Z,1001.62
2019-01-18T05:37:17.511Z,1001.66
2019-01-18T05:38:17.436Z,1001.68
2019-01-18T05:39:17.417Z,1001.71
2019-01-18T05:40:17.399Z,1001.69
2019-01-18T05:41:17.383Z,1001.70
2019-01-18T05:42:17.365Z,1001.72
2019-01-18T05:43:17.347Z,1001.73
2019-01-18T05:44:17.327Z,1001.75
2019-01-18T05:45:17.309Z,1001.75
2019-01-18T05:46:17.292Z,1001.79
2019-01-18T05:47:17.273Z,1001.77
2019-01-18T05:48:17.255Z,1001.79
2019-01-18T05:49:17.237Z,1001.81
2019-01-18T05:50:17.223Z,1001.80
2019-01-18T05:51:17.201Z,1001.82
2019-01-18T05:52:17.183Z,1001.84
2019-01-18T05:53:17.165Z,1001.86
2019-01-18T05:54:17.150Z,1001.86
2019-01-18T05:55:17.129Z,1001.89
2019-01-18T05:56:17.111Z,1001.88
2019-01-18T05:57:17.095Z,1001.91
2019-01-18T05:58:17.076Z,1001.91
2019-01-18T05:59:17.058Z,1001.91
2019-01-18T06:00:17.039Z,1001.91
2019-01-18T06:01:17.030Z,1001.88
2019-01-18T06:02:17.004Z,1001.88
2019-01-18T06:03:16.988Z,1001.91
2019-01-18T06:04:16.968Z,1001.88
2019-01-18T06:05:16.955Z,1001.93
2019-01-18T06:06:16.933Z,1001.90
2019-01-18T06:07:16.915Z,1001.92
2019-01-18T06:08:16.897Z,1001.92
2019-01-18T06:09:16.880Z,1001.95
2019-01-18T06:10:16.864Z,1001.95
2019-01-18T06:11:16.845Z,1001.92
2019-01-18T06:12:16.829Z,1001.95
2019-01-18T06:13:16.809Z,1001.97
2019-01-18T06:14:16.792Z,1001.96
2019-01-18T06:15:16.773Z,1001.97
2019-01-18T06:16:16.759Z,1001.99
2019-01-18T06:17:16.743Z,1002.00
2019-01-18T06:18:16.721Z,1002.00
2019-01-18T06:19:16.704Z,1002.04
2019-01-18T06:20:16.685Z,1002.05
2019-01-18T06:21:16.668Z,1002.03
2019-01-18T06:22:16.695Z,1002.04
2019-01-18T06:23:16.633Z,1002.02
2019-01-18T06:24:16.615Z,1002.07
2019-01-18T06:25:16.603Z,1002.05
2019-01-18T06:26:16.580Z,1002.02
2019-01-18T06:27:16.566Z,1002.06
2019-01-18T06:28:16.545Z,1002.04
2019-01-18T06:29:16.528Z,1002.02
2019-01-18T06:30:16.512Z,1001.99
2019-01-18T06:31:16.494Z,1002.03
2019-01-18T06:32:16.476Z,1002.05
2019-01-18T06:33:16.458Z,1002.00
2019-01-18T06:34:16.442Z,1002.02
2019-01-18T06:35:16.425Z,1002.00
2019-01-18T06:36:16.409Z,1001.98
2019-01-18T06:37:16.389Z,1001.97
2019-01-18T06:38:16.372Z,1001.98
2019-01-18T06:39:16.404Z,1001.95
2019-01-18T06:40:16.337Z,1001.97
2019-01-18T06:41:16.320Z,1001.99
2019-01-18T06:42:16.303Z,1001.97
2019-01-18T06:43:16.285Z,1001.98
2019-01-18T06:44:16.271Z,1001.98
2019-01-18T06:45:16.250Z,1002.01
2019-01-18T06:46:16.234Z,1002.01
2019-01-18T06:47:16.216Z,1002.02
2019-01-18T06:48:16.201Z,1002.06
2019-01-18T06:49:16.181Z,1002.06
2019-01-18T06:50:16.164Z,1002.04
2019-01-18T06:51:16.147Z,1002.10
2019-01-18T06:52:16.129Z,1002.11
2019-01-18T06:53:16.113Z,1002.13
2019-01-18T06:54:16.096Z,1002.20
2019-01-18T06:55:16.077Z,1002.18
2019-01-18T06:56:16.060Z,1002.21
2019-01-18T06:57:16.043Z,1002.20
2019-01-18T06:58:16.030Z,1002.22
2019-01-18T06:59:16.009Z,1002.28
2019-01-18T07:00:15.992Z,1002.25
2019-01-18T07:01:15.975Z,1002.26
2019-01-18T07:02:15.957Z,1002.24
2019-01-18T07:03:15.940Z,1002.26
2019-01-18T07:04:15.924Z,1002.24
2019-01-18T07:05:15.907Z,1002.24
2019-01-18T07:06:15.891Z,1002.27
2019-01-18T07:07:15.874Z,1002.26
2019-01-18T07:08:15.855Z,1002.28
2019-01-18T07:09:15.838Z,1002.25
2019-01-18T07:10:20.699Z,1002.24
2019-01-18T07:11:15.802Z,1002.23
2019-01-18T07:12:15.807Z,1002.21
2019-01-18T07:13:15.769Z,1002.22
2019-01-18T07:14:15.752Z,1002.24
2019-01-18T07:15:15.734Z,1002.28
2019-01-18T07:16:15.717Z,1002.28
2019-01-18T07:17:15.701Z,1002.29
2019-01-18T07:18:15.686Z,1002.36
2019-01-18T07:19:15.666Z,1002.39
2019-01-18T07:20:15.649Z,1002.39
2019-01-18T07:21:15.632Z,1002.41
2019-01-18T07:22:15.615Z,1002.39
2019-01-18T07:23:15.599Z,1002.47
2019-01-18T07:24:15.581Z,1002.46
2019-01-18T07:25:15.565Z,1002.50
2019-01-18T07:26:15.547Z,1002.50
2019-01-18T07:27:15.530Z,1002.51
2019-01-18T07:28:15.513Z,1002.55
2019-01-18T07:29:15.497Z,1002.54
2019-01-18T07:30:15.480Z,1002.56
2019-01-18T07:31:15.462Z,1002.57
2019-01-18T07:32:15.445Z,1002.57
2019-01-18T07:33:15.428Z,1002.60
2019-01-18T07:34:15.412Z,1002.57
2019-01-18T07:35:15.393Z,1002.60
2019-01-18T07:36:15.377Z,1002.61
2019-01-18T07:37:15.360Z,1002.63
2019-01-18T07:38:15.345Z,1002.65
2019-01-18T07:39:15.325Z,1002.63
2019-01-18T07:40:15.358Z,1002.64
2019-01-18T07:41:15.290Z,1002.62
2019-01-18T07:42:15.274Z,1002.67
2019-01-18T07:43:15.258Z,1002.64
2019-01-18T07:44:15.239Z,1002.66
2019-01-18T07:45:15.221Z,1002.68
2019-01-18T07:46:15.203Z,1002.68
2019-01-18T07:47:15.185Z,1002.70
2019-01-18T07:48:15.171Z,1002.70
2019-01-18T07:49:15.150Z,1002.75
2019-01-18T07:50:19.934Z,1002.77
2019-01-18T07:51:15.114Z,1002.77
2019-01-18T07:52:15.100Z,1002.76
2019-01-18T07:53:16.381Z,1002.73
2019-01-18T07:54:15.063Z,1002.77
2019-01-18T07:55:15.044Z,1002.76
2019-01-18T07:56:15.027Z,1002.76
2019-01-18T07:57:15.009Z,1002.79
2019-01-18T07:58:14.991Z,1002.78
2019-01-18T07:59:14.973Z,1002.80
2019-01-18T08:00:14.958Z,1002.79
2019-01-18T08:01:14.939Z,1002.80
2019-01-18T08:02:14.921Z,1002.85
2019-01-18T08:03:14.902Z,1002.84
2019-01-18T08:04:14.885Z,1002.90
2019-01-18T08:05:14.868Z,1002.88
2019-01-18T08:06:14.900Z,1002.88
2019-01-18T08:07:14.833Z,1002.89
2019-01-18T08:08:14.814Z,1002.92
2019-01-18T08:09:14.797Z,1002.91
2019-01-18T08:10:14.780Z,1002.92
2019-01-18T08:11:14.761Z,1002.96
2019-01-18T08:12:14.744Z,1002.94
2019-01-18T08:13:14.727Z,1002.98
2019-01-18T08:14:14.709Z,1002.98
2019-01-18T08:15:14.693Z,1003.00
2019-01-18T08:16:14.675Z,1003.00
2019-01-18T08:17:14.658Z,1003.02
2019-01-18T08:18:14.641Z,1003.02
2019-01-18T08:19:14.623Z,1003.08
2019-01-18T08:20:14.605Z,1003.10
2019-01-18T08:21:14.588Z,1003.13
2019-01-18T08:22:14.576Z,1003.12
2019-01-18T08:23:14.558Z,1003.13
2019-01-18T08:24:14.537Z,1003.19
2019-01-18T08:25:14.520Z,1003.21
2019-01-18T08:26:14.503Z,1003.22
2019-01-18T08:27:14.485Z,1003.27
2019-01-18T08:28:14.469Z,1003.26
2019-01-18T08:29:14.451Z,1003.28
2019-01-18T08:30:14.437Z,1003.30
2019-01-18T08:31:14.417Z,1003.28
2019-01-18T08:32:14.402Z,1003.32
2019-01-18T08:33:14.384Z,1003.32
2019-01-18T08:34:14.367Z,1003.33
2019-01-18T08:35:14.350Z,1003.34
2019-01-18T08:36:14.333Z,1003.34
2019-01-18T08:37:14.316Z,1003.36
2019-01-18T08:38:14.300Z,1003.36
2019-01-18T08:39:14.283Z,1003.37
2019-01-18T08:40:14.267Z,1003.41
2019-01-18T08:41:14.299Z,1003.40
2019-01-18T08:42:14.234Z,1003.44
2019-01-18T08:43:14.215Z,1003.43
2019-01-18T08:44:14.198Z,1003.46
2019-01-18T08:45:14.185Z,1003.47
2019-01-18T08:46:14.169Z,1003.49
2019-01-18T08:47:14.148Z,1003.45
2019-01-18T08:48:14.132Z,1003.46
2019-01-18T08:49:14.119Z,1003.48
2019-01-18T08:50:14.100Z,1003.46
2019-01-18T08:51:14.082Z,1003.47
2019-01-18T08:52:14.066Z,1003.53
2019-01-18T08:53:14.049Z,1003.51
2019-01-18T08:54:14.033Z,1003.57
2019-01-18T08:55:14.017Z,1003.55
2019-01-18T08:56:14.000Z,1003.55
2019-01-18T08:57:13.984Z,1003.62
2019-01-18T08:58:13.967Z,1003.60
2019-01-18T08:59:13.949Z,1003.64
2019-01-18T09:00:13.934Z,1003.61
2019-01-18T09:01:13.919Z,1003.61
2019-01-18T09:02:13.901Z,1003.66
2019-01-18T09:03:13.884Z,1003.65
2019-01-18T09:04:13.868Z,1003.65
2019-01-18T09:05:13.853Z,1003.65
2019-01-18T09:06:13.836Z,1003.63
2019-01-18T09:07:13.819Z,1003.67
2019-01-18T09:08:13.805Z,1003.66
2019-01-18T09:09:13.788Z,1003.67
2019-01-18T09:10:13.770Z,1003.68
2019-01-18T09:11:13.758Z,1003.67
2019-01-18T09:12:13.737Z,1003.70
2019-01-18T09:13:13.721Z,1003.72
2019-01-18T09:14:19.442Z,1003.67
2019-01-18T09:15:13.689Z,1003.72
2019-01-18T09:16:13.672Z,1003.74
2019-01-18T09:17:13.657Z,1003.74
2019-01-18T09:18:13.644Z,1003.74
2019-01-18T09:19:13.623Z,1003.74
2019-01-18T09:20:13.607Z,1003.77
2019-01-18T09:21:13.591Z,1003.79
2019-01-18T09:22:13.577Z,1003.77
2019-01-18T09:23:13.558Z,1003.79
2019-01-18T09:24:13.542Z,1003.83
2019-01-18T09:25:13.528Z,1003.85
2019-01-18T09:26:13.511Z,1003.84
2019-01-18T09:27:13.495Z,1003.83
2019-01-18T09:28:13.477Z,1003.83
2019-01-18T09:29:13.462Z,1003.89
2019-01-18T09:30:13.445Z,1003.85
2019-01-18T09:31:13.429Z,1003.87
2019-01-18T09:32:13.412Z,1003.89
2019-01-18T09:33:13.438Z,1003.84
2019-01-18T09:34:13.380Z,1003.87
2019-01-18T09:35:13.363Z,1003.88
2019-01-18T09:36:13.347Z,1003.85
2019-01-18T09:37:13.331Z,1003.86
2019-01-18T09:38:17.761Z,1003.87
2019-01-18T09:39:13.297Z,1003.86
2019-01-18T09:40:13.282Z,1003.85
2019-01-18T09:41:13.265Z,1003.87
2019-01-18T09:42:13.300Z,1003.88
2019-01-18T09:43:13.235Z,1003.90
2019-01-18T09:44:13.216Z,1003.92
2019-01-18T09:45:13.200Z,1003.93
2019-01-18T09:46:13.186Z,1003.91
2019-01-18T09:47:13.170Z,1003.94
2019-01-18T09:48:13.155Z,1003.93
2019-01-18T09:49:13.136Z,1003.96
2019-01-18T09:50:13.121Z,1003.95
2019-01-18T09:51:13.103Z,1003.98
2019-01-18T09:52:13.088Z,1003.99
2019-01-18T09:53:13.072Z,1004.01
2019-01-18T09:54:13.059Z,1004.00
2019-01-18T09:55:13.041Z,1004.03
2019-01-18T09:56:13.025Z,1004.02
2019-01-18T09:57:13.008Z,1004.06
2019-01-18T09:58:12.991Z,1003.99
2019-01-18T09:59:12.974Z,1004.03
2019-01-18T10:00:12.958Z,1004.04
2019-01-18T10:01:12.941Z,1004.06
2019-01-18T10:02:12.927Z,1004.06
2019-01-18T10:03:12.909Z,1004.09
2019-01-18T10:04:12.893Z,1004.11
2019-01-18T10:05:12.877Z,1004.07
2019-01-18T10:06:12.861Z,1004.11
2019-01-18T10:07:12.845Z,1004.07
2019-01-18T10:08:12.831Z,1004.07
2019-01-18T10:09:12.815Z,1004.08
2019-01-18T10:10:12.797Z,1004.08
2019-01-18T10:11:12.780Z,1004.09
2019-01-18T10:12:12.764Z,1004.06
2019-01-18T10:13:12.800Z,1004.06
2019-01-18T10:14:12.737Z,1004.08
2019-01-18T10:15:12.726Z,1004.08
2019-01-18T10:16:12.700Z,1004.08
2019-01-18T10:17:12.685Z,1004.07
2019-01-18T10:18:12.669Z,1004.12
2019-01-18T10:19:12.654Z,1004.09
2019-01-18T10:20:12.636Z,1004.10
2019-01-18T10:21:12.622Z,1004.07
2019-01-18T10:22:12.606Z,1004.08
2019-01-18T10:23:12.591Z,1004.13
2019-01-18T10:24:12.575Z,1004.11
2019-01-18T10:25:12.559Z,1004.09
2019-01-18T10:26:12.542Z,1004.08
2019-01-18T10:27:12.526Z,1004.07
2019-01-18T10:28:12.511Z,1004.10
2019-01-18T10:29:12.495Z,1004.10
2019-01-18T10:30:12.480Z,1004.07
2019-01-18T10:31:12.464Z,1004.13
2019-01-18T10:32:12.449Z,1004.09
2019-01-18T10:33:12.434Z,1004.08
2019-01-18T10:34:12.420Z,1004.13
2019-01-18T10:35:12.406Z,1004.08
2019-01-18T10:36:12.396Z,1004.07
2019-01-18T10:37:12.379Z,1004.01
2019-01-18T10:38:12.367Z,1004.08
2019-01-18T10:39:12.355Z,1004.06
2019-01-18T10:40:12.343Z,1004.07
2019-01-18T10:41:12.332Z,1004.12
2019-01-18T10:42:12.321Z,1004.15
2019-01-18T10:43:12.309Z,1004.14
2019-01-18T10:44:12.298Z,1004.15
2019-01-18T10:45:12.287Z,1004.17
2019-01-18T10:46:12.277Z,1004.16
2019-01-18T10:47:12.267Z,1004.17
2019-01-18T10:48:12.257Z,1004.11
2019-01-18T10:49:12.248Z,1004.18
2019-01-18T10:50:12.239Z,1004.18
2019-01-18T10:51:12.227Z,1004.17
2019-01-18T10:52:12.225Z,1004.09
2019-01-18T10:53:12.210Z,1004.10
2019-01-18T10:54:12.197Z,1004.10
2019-01-18T10:55:12.186Z,1004.10
2019-01-18T10:56:12.176Z,1004.14
2019-01-18T10:57:12.166Z,1004.05
2019-01-18T10:58:12.157Z,1004.06
2019-01-18T10:59:12.150Z,1004.11
2019-01-18T11:00:12.136Z,1004.05
2019-01-18T11:01:12.126Z,1004.05
2019-01-18T11:02:12.116Z,1004.06
2019-01-18T11:03:12.107Z,1004.05
2019-01-18T11:04:12.096Z,1004.12
2019-01-18T11:05:12.085Z,1004.06
2019-01-18T11:06:12.076Z,1004.02
2019-01-18T11:07:12.064Z,1004.01
2019-01-18T11:08:17.395Z,1004.00
2019-01-18T11:09:12.046Z,1004.01
2019-01-18T11:10:12.034Z,1003.96
2019-01-18T11:11:12.023Z,1004.00
2019-01-18T11:12:12.015Z,1003.95
2019-01-18T11:13:12.004Z,1003.94
2019-01-18T11:14:12.043Z,1004.01
2019-01-18T11:15:11.984Z,1003.94
2019-01-18T11:16:11.972Z,1003.97
2019-01-18T11:17:11.962Z,1003.96
2019-01-18T11:18:11.952Z,1003.93
2019-01-18T11:19:11.945Z,1003.96
2019-01-18T11:20:11.932Z,1003.91
2019-01-18T11:21:11.923Z,1003.88
2019-01-18T11:22:11.913Z,1003.95
2019-01-18T11:23:11.909Z,1003.90
2019-01-18T11:24:11.894Z,1003.92
2019-01-18T11:25:11.885Z,1003.93
2019-01-18T11:26:11.876Z,1003.92
2019-01-18T11:27:11.867Z,1003.89
2019-01-18T11:28:11.857Z,1003.89
2019-01-18T11:29:11.899Z,1003.90
2019-01-18T11:30:11.840Z,1003.90
2019-01-18T11:31:11.833Z,1003.83
2019-01-18T11:32:13.854Z,1003.89
2019-01-18T11:33:11.816Z,1003.84
2019-01-18T11:34:11.806Z,1003.85
2019-01-18T11:35:11.796Z,1003.89
2019-01-18T11:36:11.789Z,1003.89
2019-01-18T11:37:11.781Z,1003.90
2019-01-18T11:38:11.774Z,1003.89
2019-01-18T11:39:11.764Z,1003.91
2019-01-18T11:40:11.758Z,1003.96
2019-01-18T11:41:11.749Z,1003.90
2019-01-18T11:42:12.777Z,1003.94
2019-01-18T11:43:11.732Z,1003.93
2019-01-18T11:44:11.774Z,1003.95
2019-01-18T11:45:11.717Z,1003.95
2019-01-18T11:46:11.706Z,1003.96
2019-01-18T11:47:11.698Z,1003.92
2019-01-18T11:48:11.690Z,1003.96
2019-01-18T11:49:11.683Z,1003.97
2019-01-18T11:50:11.674Z,1003.93
2019-01-18T11:51:11.665Z,1003.93
2019-01-18T11:52:11.657Z,1003.96
2019-01-18T11:53:11.653Z,1003.95
2019-01-18T11:54:11.642Z,1003.92
2019-01-18T11:55:11.632Z,1003.94
2019-01-18T11:56:11.625Z,1003.93
2019-01-18T11:57:11.617Z,1003.93
2019-01-18T11:58:11.610Z,1003.92
2019-01-18T11:59:11.601Z,1003.96
2019-01-18T12:00:11.595Z,1003.97
2019-01-18T12:01:11.587Z,1003.96
2019-01-18T12:02:15.189Z,1003.93
2019-01-18T12:03:11.571Z,1003.97
2019-01-18T12:04:11.566Z,1003.95
2019-01-18T12:05:11.561Z,1003.95
2019-01-18T12:06:11.549Z,1003.95
2019-01-18T12:07:11.542Z,1003.94
2019-01-18T12:08:11.533Z,1003.93
2019-01-18T12:09:11.525Z,1003.96
2019-01-18T12:10:11.519Z,1003.96